Time;durP1;ratioP1;P1;durP2;ratioP2;P2;SDS_P1;SDS_P2;PMS_P1;PMS_P2;Temp;Humidity;BMP_temperature;BMP_pressure;BME280_temperature;BME280_humidity;BME280_pressure;Samples;Min_cycle;Max_cycle;Signal;HPM_P1;HPM_P2
2022/06/21 00:00:16;;;;;;;15.60;3.10;;;11.10;99.90;;;;;;5073879;28;20047;-46
2022/06/21 00:02:44;;;;;;;6.18;2.55;;;10.30;99.90;;;;;;5073101;28;20057;-46
2022/06/21 00:05:20;;;;;;;13.63;2.78;;;11.90;99.90;;;;;;5074281;28;20504;-47
2022/06/21 00:07:46;;;;;;;11.98;2.95;;;10.30;99.90;;;;;;5072671;28;20032;-47
2022/06/21 00:10:16;;;;;;;12.43;3.45;;;10.20;99.90;;;;;;5073607;28;20075;-49
2022/06/21 00:12:42;;;;;;;7.97;2.55;;;10.30;99.90;;;;;;5074116;28;20040;-47
2022/06/21 00:15:09;;;;;;;8.20;2.40;;;10.00;99.90;;;;;;5074437;28;20046;-48
2022/06/21 00:17:35;;;;;;;11.82;2.60;;;10.10;99.90;;;;;;5073167;28;20409;-48
2022/06/21 00:20:01;;;;;;;8.50;2.60;;;10.50;99.90;;;;;;5072519;28;20156;-51
2022/06/21 00:22:26;;;;;;;8.52;2.90;;;9.80;99.90;;;;;;5072674;28;20052;-49
2022/06/21 00:24:52;;;;;;;12.73;2.50;;;10.60;99.90;;;;;;5073792;28;20032;-51
2022/06/21 00:27:20;;;;;;;8.95;2.60;;;9.90;99.90;;;;;;5073451;28;20047;-46
2022/06/21 00:29:46;;;;;;;8.27;2.70;;;10.10;99.90;;;;;;5071258;28;20039;-48
2022/06/21 00:32:18;;;;;;;7.10;2.33;;;9.90;99.90;;;;;;5072691;28;20051;-50
2022/06/21 00:34:46;;;;;;;14.23;3.00;;;9.80;99.90;;;;;;5072981;28;20047;-50
2022/06/21 00:37:18;;;;;;;8.45;2.85;;;10.70;99.90;;;;;;5074351;28;20051;-45
2022/06/21 00:39:44;;;;;;;8.52;2.78;;;9.60;99.90;;;;;;5073463;28;20047;-46
2022/06/21 00:42:30;;;;;;;10.50;2.50;;;9.60;99.90;;;;;;5074717;28;20047;-46
2022/06/21 00:45:12;;;;;;;9.27;2.90;;;10.70;99.90;;;;;;5073422;28;20858;-46
2022/06/21 00:48:20;;;;;;;10.95;2.90;;;9.50;99.90;;;;;;5073926;28;20385;-47
2022/06/21 00:50:51;;;;;;;10.95;3.03;;;9.50;99.90;;;;;;5062074;28;20040;-46
2022/06/21 00:53:21;;;;;;;7.18;2.22;;;9.80;99.90;;;;;;5074236;28;20039;-47
2022/06/21 00:55:56;;;;;;;6.05;2.60;;;10.80;99.90;;;;;;5073067;28;20043;-48
2022/06/21 00:58:26;;;;;;;7.60;3.08;;;9.40;99.90;;;;;;5072988;28;20763;-49
2022/06/21 01:01:05;;;;;;;5.85;2.30;;;9.40;99.90;;;;;;5072699;28;20101;-47
2022/06/21 01:03:38;;;;;;;6.95;2.45;;;10.20;99.90;;;;;;5072994;28;20036;-49
2022/06/21 01:06:08;;;;;;;12.05;3.05;;;9.10;99.90;;;;;;5073271;28;20040;-46
2022/06/21 01:08:39;;;;;;;8.38;2.67;;;10.40;99.90;;;;;;5072143;28;20054;-47
2022/06/21 01:11:11;;;;;;;12.52;3.10;;;10.20;99.90;;;;;;5072209;28;20787;-49
2022/06/21 01:13:39;;;;;;;;;;;9.10;99.90;;;;;;5072417;28;20100;-47
2022/06/21 01:16:06;;;;;;;9.90;3.10;;;9.10;99.90;;;;;;5073081;28;19970;-47
2022/06/21 01:18:32;;;;;;;6.10;2.80;;;9.20;99.90;;;;;;5072042;28;20043;-45
2022/06/21 01:21:00;;;;;;;7.85;2.90;;;9.10;99.90;;;;;;5071838;28;20090;-51
2022/06/21 01:23:54;;;;;;;8.93;2.83;;;9.20;99.90;;;;;;5071031;28;20048;-49
2022/06/21 01:27:00;;;;;;;7.18;2.75;;;9.00;99.90;;;;;;5072990;28;20132;-46
2022/06/21 01:29:30;;;;;;;7.22;2.45;;;9.10;99.90;;;;;;5029306;28;20056;-47
2022/06/21 01:31:59;;;;;;;5.90;2.70;;;8.80;99.90;;;;;;5027983;28;20132;-46
2022/06/21 01:34:27;;;;;;;9.73;2.83;;;9.20;99.90;;;;;;5029600;28;20153;-48
2022/06/21 01:37:00;;;;;;;8.02;3.47;;;9.20;99.90;;;;;;5029340;28;20657;-47
2022/06/21 01:39:32;;;;;;;8.10;2.92;;;8.90;99.90;;;;;;5029609;28;21875;-49
2022/06/21 01:42:19;;;;;;;7.82;3.05;;;8.60;99.90;;;;;;5028667;28;20075;-47
2022/06/21 01:44:52;;;;;;;4.93;2.70;;;8.70;99.90;;;;;;5028870;28;20092;-48
2022/06/21 01:47:25;;;;;;;6.13;1.83;;;8.80;99.90;;;;;;5027557;28;20036;-47
2022/06/21 01:49:58;;;;;;;5.40;2.60;;;8.80;99.90;;;;;;5029010;28;20084;-45
2022/06/21 01:52:29;;;;;;;4.80;2.50;;;8.70;99.90;;;;;;5029921;28;20627;-50
2022/06/21 01:55:08;;;;;;;4.90;2.20;;;8.70;99.90;;;;;;5030776;28;20094;-49
2022/06/21 01:57:34;;;;;;;5.55;2.70;;;8.50;99.90;;;;;;5030498;28;20091;-47
2022/06/21 02:00:03;;;;;;;3.47;2.05;;;10.00;99.90;;;;;;5013647;28;20709;-51
2022/06/21 02:02:49;;;;;;;4.18;1.90;;;8.60;99.90;;;;;;5029375;28;20037;-47
2022/06/21 02:05:27;;;;;;;3.17;1.50;;;8.40;99.90;;;;;;5056646;28;20422;-49
2022/06/21 02:07:58;;;;;;;2.00;1.40;;;8.40;99.90;;;;;;5072789;28;20519;-46
2022/06/21 02:10:27;;;;;;;3.08;1.60;;;8.70;99.90;;;;;;5073002;28;20310;-47
2022/06/21 02:13:05;;;;;;;4.30;1.80;;;8.70;99.90;;;;;;5069837;28;20360;-50
2022/06/21 02:15:43;;;;;;;3.72;2.58;;;8.20;99.90;;;;;;5072617;28;20062;-48
2022/06/21 02:18:10;;;;;;;7.78;2.00;;;8.10;99.90;;;;;;5071041;28;20036;-47
2022/06/21 02:20:56;;;;;;;4.57;1.80;;;8.40;99.90;;;;;;5071279;28;20072;-45
2022/06/21 02:23:22;;;;;;;5.57;2.00;;;8.50;99.90;;;;;;5072624;28;20568;-46
2022/06/21 02:25:53;;;;;;;1.85;1.30;;;8.10;99.90;;;;;;5070853;28;20063;-45
2022/06/21 02:28:20;;;;;;;2.28;1.63;;;8.10;99.90;;;;;;5070269;28;20393;-47
2022/06/21 02:30:47;;;;;;;4.38;1.98;;;8.00;99.90;;;;;;5071113;28;20129;-46
2022/06/21 02:33:21;;;;;;;4.25;2.10;;;7.90;99.90;;;;;;5071735;28;20040;-50
2022/06/21 02:35:59;;;;;;;4.43;1.77;;;8.00;99.90;;;;;;5071113;28;20382;-46
2022/06/21 02:38:36;;;;;;;3.95;1.88;;;8.00;99.90;;;;;;5071820;28;20085;-46
2022/06/21 02:41:32;;;;;;;3.90;2.10;;;7.90;99.90;;;;;;5071456;28;20949;-48
2022/06/21 02:44:25;;;;;;;6.78;3.28;;;8.10;99.90;;;;;;5071468;28;20469;-49
2022/06/21 02:46:55;;;;;;;5.93;3.33;;;8.10;99.90;;;;;;5070342;28;20135;-46
2022/06/21 02:49:31;;;;;;;7.00;3.67;;;8.00;99.90;;;;;;5074759;28;20044;-47
2022/06/21 02:52:05;;;;;;;5.45;3.83;;;8.30;99.90;;;;;;5074925;28;20040;-49
2022/06/21 02:54:58;;;;;;;6.35;3.50;;;8.10;99.90;;;;;;5076256;28;20043;-46
2022/06/21 02:57:28;;;;;;;6.28;3.17;;;8.30;99.90;;;;;;5075498;28;20040;-46
2022/06/21 02:59:57;;;;;;;6.40;3.50;;;8.30;99.90;;;;;;5076044;28;20032;-48
2022/06/21 03:02:26;;;;;;;9.88;4.57;;;8.40;99.90;;;;;;5075928;28;20079;-48
2022/06/21 03:04:56;;;;;;;12.57;4.50;;;8.40;99.90;;;;;;5075889;28;20113;-48
2022/06/21 03:07:30;;;;;;;9.10;4.88;;;8.50;99.90;;;;;;5075823;28;20405;-46
2022/06/21 03:09:57;;;;;;;8.90;4.68;;;9.20;99.90;;;;;;5076045;28;20154;-49
2022/06/21 03:12:26;;;;;;;8.65;4.88;;;9.70;99.90;;;;;;5077305;28;20055;-50
2022/06/21 03:14:56;;;;;;;9.40;4.43;;;8.80;99.90;;;;;;5075297;28;20127;-48
2022/06/21 03:17:29;;;;;;;7.75;4.47;;;8.70;99.90;;;;;;5075745;28;20044;-48
2022/06/21 03:19:57;;;;;;;7.10;4.78;;;8.80;99.90;;;;;;5075596;28;20047;-54
2022/06/21 03:22:31;;;;;;;9.60;4.68;;;8.80;99.90;;;;;;5076457;28;20040;-48
2022/06/21 03:25:00;;;;;;;7.15;5.28;;;9.00;99.90;;;;;;5076459;28;20455;-47
2022/06/21 03:27:48;;;;;;;7.88;5.40;;;8.80;99.90;;;;;;5074729;28;20055;-45
2022/06/21 03:30:16;;;;;;;9.80;5.47;;;8.90;99.90;;;;;;5074534;28;20040;-46
2022/06/21 03:32:43;;;;;;;9.52;5.82;;;9.20;99.90;;;;;;5074311;28;20086;-49
2022/06/21 03:35:11;;;;;;;7.78;5.13;;;10.30;99.90;;;;;;5073992;28;20500;-46
2022/06/21 03:37:38;;;;;;;10.15;5.68;;;10.20;99.90;;;;;;5074679;28;20077;-50
2022/06/21 03:42:52;;;;;;;15.85;5.95;;;9.30;99.90;;;;;;5073536;28;20052;-47
2022/06/21 03:45:20;;;;;;;10.65;5.80;;;9.90;99.90;;;;;;5073883;28;20306;-49
2022/06/21 03:47:58;;;;;;;7.43;5.53;;;9.70;99.90;;;;;;5073603;28;20347;-50
2022/06/21 03:50:53;;;;;;;12.07;6.55;;;10.60;99.90;;;;;;5074678;28;20129;-51
2022/06/21 03:53:42;;;;;;;12.75;5.47;;;9.30;99.90;;;;;;5073912;28;21083;-49
2022/06/21 03:56:19;;;;;;;11.70;5.50;;;9.20;99.90;;;;;;5074363;28;20413;-50
2022/06/21 03:58:57;;;;;;;9.15;5.25;;;9.20;99.90;;;;;;5073170;28;20759;-48
2022/06/21 04:01:35;;;;;;;10.50;4.82;;;9.20;99.90;;;;;;5074581;28;20070;-50
2022/06/21 04:04:34;;;;;;;10.45;5.38;;;9.30;99.90;;;;;;5073063;28;20512;-49
2022/06/21 04:07:02;;;;;;;12.95;5.90;;;9.10;99.90;;;;;;5074035;28;20054;-48
2022/06/21 04:10:07;;;;;;;9.80;5.10;;;9.20;99.90;;;;;;5073936;28;20722;-49
2022/06/21 04:12:46;;;;;;;7.20;4.97;;;9.20;99.90;;;;;;5011093;28;20064;-50
2022/06/21 04:15:15;;;;;;;6.63;4.75;;;9.10;99.90;;;;;;5012741;28;20061;-47
2022/06/21 04:17:49;;;;;;;11.93;4.82;;;9.30;99.90;;;;;;5011533;28;20526;-49
2022/06/21 04:20:28;;;;;;;8.50;4.85;;;10.80;99.90;;;;;;5012819;28;20529;-47
2022/06/21 04:23:12;;;;;;;9.85;5.50;;;9.60;99.90;;;;;;5011180;28;20041;-49
2022/06/21 04:25:59;;;;;;;10.20;5.13;;;9.70;99.90;;;;;;5011568;28;20220;-50
2022/06/21 04:28:32;;;;;;;7.15;4.88;;;10.00;99.90;;;;;;5011635;28;20332;-50
2022/06/21 04:31:27;;;;;;;9.25;4.85;;;10.30;99.90;;;;;;5010932;28;20042;-46
2022/06/21 04:34:08;;;;;;;8.65;4.88;;;10.40;99.90;;;;;;4970758;28;20058;-46
2022/06/21 04:36:42;;;;;;;9.68;5.05;;;10.60;99.90;;;;;;4971949;28;20109;-49
2022/06/21 04:39:26;;;;;;;10.45;4.97;;;11.50;99.90;;;;;;4971431;28;20396;-46
2022/06/21 04:41:59;;;;;;;11.02;5.35;;;11.00;99.90;;;;;;4969339;28;20971;-46
2022/06/21 04:44:44;;;;;;;13.80;5.45;;;10.90;99.90;;;;;;4971307;28;20530;-47
2022/06/21 04:47:43;;;;;;;10.98;4.88;;;10.90;99.90;;;;;;4970465;28;20046;-48
2022/06/21 04:50:34;;;;;;;10.43;5.22;;;11.30;99.90;;;;;;4971000;28;20137;-50
2022/06/21 04:53:10;;;;;;;11.93;5.40;;;11.50;99.90;;;;;;4989547;28;20045;-50
2022/06/21 04:55:49;;;;;;;9.38;4.85;;;12.10;99.90;;;;;;4990434;28;20049;-47
2022/06/21 04:58:15;;;;;;;10.65;4.90;;;13.50;99.90;;;;;;4990793;28;20722;-48
2022/06/21 05:00:41;;;;;;;14.65;5.53;;;11.70;99.90;;;;;;4989415;28;20049;-50
2022/06/21 05:03:37;;;;;;;10.95;5.43;;;12.90;99.90;;;;;;4989552;28;20076;-47
2022/06/21 05:06:05;;;;;;;13.48;5.20;;;11.90;99.90;;;;;;4989185;28;20054;-45
2022/06/21 05:08:31;;;;;;;12.82;5.97;;;11.80;99.90;;;;;;4989713;28;20053;-47
2022/06/21 05:11:01;;;;;;;14.13;4.85;;;11.90;99.90;;;;;;5012793;28;20045;-49
2022/06/21 05:13:44;;;;;;;12.75;5.40;;;13.00;99.90;;;;;;5028485;28;20059;-44
2022/06/21 05:16:24;;;;;;;12.10;5.25;;;12.00;99.90;;;;;;5029563;28;20056;-44
2022/06/21 05:19:02;;;;;;;18.10;5.22;;;12.10;99.90;;;;;;5029015;28;20053;-48
2022/06/21 05:21:42;;;;;;;10.40;5.90;;;12.10;99.90;;;;;;5027860;28;20425;-44
2022/06/21 05:24:09;;;;;;;7.95;4.65;;;13.40;99.90;;;;;;5030436;28;20045;-49
2022/06/21 05:26:45;;;;;;;13.20;4.47;;;13.10;99.90;;;;;;5045299;28;20048;-45
2022/06/21 05:29:28;;;;;;;13.70;4.63;;;13.80;99.90;;;;;;5072762;28;20463;-48
2022/06/21 05:31:58;;;;;;;10.15;4.28;;;12.90;99.90;;;;;;5072158;28;20770;-45
2022/06/21 05:34:39;;;;;;;11.35;4.35;;;14.90;99.90;;;;;;5068372;28;20143;-48
2022/06/21 05:37:34;;;;;;;9.63;4.53;;;13.30;99.90;;;;;;5072149;28;20343;-47
2022/06/21 05:40:03;;;;;;;10.23;4.40;;;14.10;99.90;;;;;;5069442;28;20048;-45
2022/06/21 05:42:29;;;;;;;8.82;4.88;;;13.30;99.90;;;;;;5071349;28;20044;-46
2022/06/21 05:45:09;;;;;;;9.73;4.90;;;13.50;99.90;;;;;;5072463;28;20759;-46
2022/06/21 05:47:41;;;;;;;10.00;4.93;;;13.70;99.90;;;;;;5072532;28;20094;-50
2022/06/21 05:50:13;;;;;;;14.75;5.10;;;13.90;99.90;;;;;;5071736;28;20114;-46
2022/06/21 05:52:49;;;;;;;11.52;4.40;;;12.80;99.90;;;;;;5070854;28;20047;-46
2022/06/21 05:55:20;;;;;;;9.18;4.80;;;14.10;99.90;;;;;;5073036;28;20073;-46
2022/06/21 05:57:56;;;;;;;11.73;4.70;;;14.10;99.90;;;;;;5072680;28;20052;-44
2022/06/21 06:00:43;;;;;;;13.45;4.65;;;14.00;99.90;;;;;;5072013;28;20100;-47
2022/06/21 06:03:24;;;;;;;10.07;4.70;;;14.20;99.90;;;;;;5071474;28;20120;-47
2022/06/21 06:05:52;;;;;;;9.50;4.72;;;14.30;99.90;;;;;;5071034;28;20119;-44
2022/06/21 06:08:23;;;;;;;12.70;5.10;;;15.90;99.90;;;;;;5071093;28;20340;-49
2022/06/21 06:10:49;;;;;;;8.10;3.70;;;14.20;99.90;;;;;;5071653;28;20059;-46
2022/06/21 06:13:20;;;;;;;7.43;4.65;;;17.00;99.90;;;;;;5071618;28;20790;-47
2022/06/21 06:15:51;;;;;;;10.70;4.72;;;16.90;99.90;;;;;;5071791;28;20037;-48
2022/06/21 06:18:19;;;;;;;9.98;4.63;;;15.60;99.90;;;;;;5072622;28;20619;-47
2022/06/21 06:20:52;;;;;;;11.00;5.53;;;14.90;99.90;;;;;;5071514;28;20304;-45
2022/06/21 06:23:35;;;;;;;15.05;6.18;;;14.70;99.90;;;;;;5073808;28;20127;-46
2022/06/21 06:26:05;;;;;;;10.50;4.65;;;15.00;99.90;;;;;;5075872;28;20036;-47
2022/06/21 06:29:01;;;;;;;8.63;4.20;;;15.30;99.90;;;;;;5075388;28;20127;-47
2022/06/21 06:31:36;;;;;;;11.13;3.67;;;15.40;99.90;;;;;;5074957;28;20036;-49
2022/06/21 06:34:13;;;;;;;9.52;2.45;;;15.50;99.90;;;;;;5075508;28;20043;-45
2022/06/21 06:36:44;;;;;;;12.30;3.00;;;15.90;99.90;;;;;;5076598;28;20028;-50
2022/06/21 06:39:25;;;;;;;12.00;4.68;;;16.30;99.90;;;;;;5075162;28;20040;-45
2022/06/21 06:42:03;;;;;;;9.48;4.07;;;16.30;99.90;;;;;;5075822;28;20067;-45
2022/06/21 06:44:34;;;;;;;12.90;3.75;;;16.20;99.90;;;;;;5076284;28;20040;-44
2022/06/21 06:47:01;;;;;;;10.65;3.67;;;16.30;99.90;;;;;;5075797;28;20112;-46
2022/06/21 06:49:34;;;;;;;11.07;4.30;;;16.60;99.90;;;;;;5075010;28;20040;-45
2022/06/21 06:52:15;;;;;;;12.27;3.42;;;16.60;99.90;;;;;;5074316;28;20485;-49
2022/06/21 06:54:53;;;;;;;9.32;4.05;;;16.60;99.90;;;;;;5076047;28;20052;-47
2022/06/21 06:57:36;;;;;;;10.68;4.05;;;16.60;99.90;;;;;;5076265;28;20044;-50
2022/06/21 07:00:18;;;;;;;9.57;3.72;;;16.90;99.90;;;;;;5074422;28;20101;-45
2022/06/21 07:02:50;;;;;;;7.93;3.15;;;17.30;99.90;;;;;;5074652;28;20036;-49
2022/06/21 07:05:36;;;;;;;8.00;3.60;;;17.50;99.90;;;;;;5073120;28;20059;-49
2022/06/21 07:08:36;;;;;;;8.65;3.30;;;18.00;99.90;;;;;;5073017;28;20047;-48
2022/06/21 07:11:18;;;;;;;9.90;3.40;;;19.00;99.90;;;;;;5071559;28;20044;-51
2022/06/21 07:13:44;;;;;;;12.18;3.80;;;20.00;99.90;;;;;;5073258;28;20484;-47
2022/06/21 07:16:16;;;;;;;8.65;4.00;;;20.10;99.90;;;;;;5073446;28;20035;-47
2022/06/21 07:18:47;;;;;;;7.82;3.38;;;21.70;99.90;;;;;;5073037;28;20660;-49
2022/06/21 07:21:15;;;;;;;9.63;4.00;;;20.60;99.90;;;;;;5073164;28;20047;-49
2022/06/21 07:23:42;;;;;;;8.90;3.17;;;20.30;99.90;;;;;;5073271;28;20044;-51
2022/06/21 07:26:23;;;;;;;6.15;2.90;;;19.80;99.90;;;;;;5073817;28;20050;-46
2022/06/21 07:29:02;;;;;;;7.25;3.33;;;19.50;99.90;;;;;;5074431;28;20267;-47
2022/06/21 07:31:39;;;;;;;10.23;3.40;;;19.10;99.90;;;;;;5074565;28;20038;-46
2022/06/21 07:34:10;;;;;;;8.45;3.63;;;20.80;99.90;;;;;;5073142;28;20028;-48
2022/06/21 07:36:43;;;;;;;9.05;3.03;;;18.60;99.90;;;;;;5073915;28;20105;-46
2022/06/21 07:39:29;;;;;;;8.00;3.53;;;18.50;99.90;;;;;;5073730;28;20519;-49
2022/06/21 07:42:06;;;;;;;9.25;3.20;;;18.60;99.90;;;;;;5070166;28;20408;-46
2022/06/21 07:44:42;;;;;;;8.02;3.40;;;20.00;99.90;;;;;;5073357;28;20399;-51
2022/06/21 07:47:24;;;;;;;12.52;3.30;;;20.80;99.90;;;;;;5074611;28;20047;-52
2022/06/21 07:49:58;;;;;;;9.88;2.90;;;21.00;99.90;;;;;;5073451;28;20063;-47
2022/06/21 07:52:31;;;;;;;12.15;3.30;;;21.00;99.90;;;;;;5074220;28;20043;-47
2022/06/21 07:54:59;;;;;;;9.75;3.33;;;19.60;99.90;;;;;;5073847;28;21111;-50
2022/06/21 07:57:40;;;;;;;8.50;3.40;;;19.30;99.90;;;;;;5075086;28;20131;-50
2022/06/21 08:00:12;;;;;;;8.82;3.10;;;19.70;99.90;;;;;;5073564;28;20040;-50
2022/06/21 08:09:01;;;;;;;11.68;3.03;;;21.10;99.90;;;;;;5073867;28;20047;-48
2022/06/21 08:11:39;;;;;;;10.50;3.25;;;19.60;99.90;;;;;;5073962;28;20127;-46
2022/06/21 08:14:07;;;;;;;11.05;2.67;;;20.40;99.90;;;;;;5071957;28;20195;-48
2022/06/21 08:17:10;;;;;;;7.57;2.50;;;20.40;99.90;;;;;;5071254;28;20038;-47
2022/06/21 08:20:02;;;;;;;8.35;2.70;;;20.40;99.90;;;;;;5072923;28;20093;-45
2022/06/21 08:22:44;;;;;;;10.85;2.55;;;20.60;99.90;;;;;;5074111;28;20531;-44
2022/06/21 08:25:30;;;;;;;7.40;2.05;;;20.10;99.90;;;;;;5071139;28;20059;-47
2022/06/21 08:27:59;;;;;;;6.38;2.60;;;20.70;99.90;;;;;;5074745;28;20036;-47
2022/06/21 08:30:32;;;;;;;6.47;2.17;;;21.90;99.90;;;;;;5074664;28;20043;-45
2022/06/21 08:33:08;;;;;;;6.93;1.95;;;22.50;99.90;;;;;;5072641;28;20045;-45
2022/06/21 08:35:42;;;;;;;7.13;1.67;;;23.30;99.90;;;;;;5071677;28;20638;-45
2022/06/21 08:38:25;;;;;;;9.48;2.15;;;24.10;99.90;;;;;;5071241;28;20445;-46
2022/06/21 08:44:35;;;;;;;8.52;2.05;;;24.20;99.90;;;;;;5008343;28;20659;-47
2022/06/21 08:47:11;;;;;;;5.13;1.70;;;24.60;99.90;;;;;;5010860;28;20049;-45
2022/06/21 08:50:19;;;;;;;6.32;2.42;;;26.40;99.90;;;;;;5010182;28;20656;-47
2022/06/21 08:53:09;;;;;;;10.10;1.90;;;25.20;99.90;;;;;;4950812;28;20701;-44
2022/06/21 08:55:51;;;;;;;6.47;1.80;;;25.10;99.90;;;;;;4952668;28;20516;-47
2022/06/21 08:58:56;;;;;;;7.05;2.50;;;24.90;99.90;;;;;;4952082;28;21037;-48
2022/06/21 09:01:42;;;;;;;5.95;1.85;;;25.40;99.90;;;;;;4895699;29;20048;-48
2022/06/21 09:04:37;;;;;;;4.90;1.60;;;24.70;99.90;;;;;;4895884;29;20848;-49
2022/06/21 09:07:19;;;;;;;6.40;1.88;;;24.80;99.90;;;;;;4896103;29;20063;-48
2022/06/21 09:10:09;;;;;;;11.48;1.90;;;25.00;99.90;;;;;;4894748;29;20056;-47
2022/06/21 09:13:01;;;;;;;8.95;1.75;;;24.90;99.90;;;;;;4895986;29;20055;-47
2022/06/21 09:16:09;;;;;;;6.93;2.15;;;24.90;99.90;;;;;;4896046;29;20044;-48
2022/06/21 09:18:57;;;;;;;8.65;2.28;;;24.30;99.90;;;;;;4840216;29;20081;-49
2022/06/21 09:21:26;;;;;;;5.35;2.03;;;24.00;99.90;;;;;;4881777;29;20406;-48
2022/06/21 09:24:28;;;;;;;7.72;2.13;;;23.70;99.90;;;;;;4895512;29;20520;-48
2022/06/21 09:26:58;;;;;;;4.70;1.65;;;23.40;99.90;;;;;;4895013;29;20484;-47
2022/06/21 09:30:04;;;;;;;6.57;1.98;;;23.60;99.90;;;;;;4901042;29;20055;-46
2022/06/21 09:32:57;;;;;;;6.30;2.10;;;23.20;99.90;;;;;;4911654;29;20662;-47
2022/06/21 09:35:34;;;;;;;6.82;1.90;;;23.20;99.90;;;;;;4911821;29;20142;-47
2022/06/21 09:38:18;;;;;;;5.00;1.60;;;23.00;99.90;;;;;;4943016;28;20080;-46
2022/06/21 09:41:28;;;;;;;6.82;1.70;;;23.00;99.90;;;;;;4989229;28;20097;-48
2022/06/21 09:44:00;;;;;;;5.22;1.40;;;23.10;99.90;;;;;;4893670;29;20057;-47
2022/06/21 09:47:00;;;;;;;7.22;1.40;;;22.80;99.90;;;;;;4893496;29;20048;-48
2022/06/21 09:49:33;;;;;;;7.55;1.90;;;22.30;99.90;;;;;;4873465;29;20052;-46
2022/06/21 09:52:30;;;;;;;4.47;1.40;;;22.40;99.90;;;;;;4860744;29;20092;-47
2022/06/21 09:55:04;;;;;;;5.70;1.40;;;22.40;99.90;;;;;;4883243;29;20228;-48
2022/06/21 09:57:36;;;;;;;6.28;1.55;;;22.60;99.90;;;;;;4911676;29;20036;-49
2022/06/21 10:00:22;;;;;;;3.92;1.45;;;22.60;99.90;;;;;;4908544;29;20082;-48
2022/06/21 10:03:09;;;;;;;4.30;1.30;;;22.90;99.90;;;;;;4895420;29;20128;-46
2022/06/21 10:05:54;;;;;;;5.38;1.60;;;23.00;99.90;;;;;;4910641;29;20786;-48
2022/06/21 10:08:38;;;;;;;5.13;1.40;;;23.10;99.90;;;;;;4911518;29;20129;-48
2022/06/21 10:11:32;;;;;;;5.03;1.45;;;23.30;99.90;;;;;;4910566;29;20436;-47
2022/06/21 10:14:10;;;;;;;5.43;1.55;;;23.20;99.90;;;;;;4912117;29;20059;-45
2022/06/21 10:16:56;;;;;;;5.32;1.40;;;23.40;99.90;;;;;;4911785;29;20052;-46
2022/06/21 10:19:53;;;;;;;6.78;1.40;;;23.30;99.90;;;;;;4990428;28;20061;-49
2022/06/21 10:22:19;;;;;;;3.45;1.13;;;23.40;99.90;;;;;;4989616;28;20050;-46
2022/06/21 10:25:03;;;;;;;5.07;1.50;;;23.50;99.90;;;;;;4994988;28;20584;-49
2022/06/21 10:27:36;;;;;;;3.95;1.20;;;23.50;99.90;;;;;;5073471;28;20040;-48
2022/06/21 10:30:26;;;;;;;5.00;1.15;;;23.60;99.90;;;;;;5071073;28;20793;-48
2022/06/21 10:33:11;;;;;;;4.05;1.35;;;23.40;99.90;;;;;;5073202;28;20036;-48
2022/06/21 10:36:01;;;;;;;5.13;1.13;;;23.60;99.90;;;;;;5071534;28;20036;-46
2022/06/21 10:38:38;;;;;;;4.93;1.75;;;23.90;99.90;;;;;;5071445;28;21004;-49
2022/06/21 10:41:11;;;;;;;3.78;1.10;;;24.00;99.90;;;;;;5073399;28;20043;-50
2022/06/21 10:43:58;;;;;;;6.03;1.73;;;24.00;99.90;;;;;;5071456;28;20052;-49
2022/06/21 10:46:32;;;;;;;4.55;1.23;;;24.10;99.90;;;;;;5072647;28;20036;-50
2022/06/21 10:49:12;;;;;;;6.50;1.58;;;23.90;99.90;;;;;;5071277;28;20052;-48
2022/06/21 10:51:46;;;;;;;6.40;1.70;;;23.40;99.90;;;;;;5070454;28;20104;-47
2022/06/21 10:54:36;;;;;;;6.57;2.08;;;22.70;99.90;;;;;;5070363;28;20457;-48
2022/06/21 10:57:09;;;;;;;5.13;1.30;;;22.20;99.90;;;;;;5066177;28;20050;-48
2022/06/21 11:03:03;;;;;;;6.93;1.50;;;22.50;99.90;;;;;;5071020;28;20098;-46
2022/06/21 11:05:34;;;;;;;4.10;1.00;;;22.90;99.90;;;;;;4988621;28;20057;-47
2022/06/21 11:08:45;;;;;;;5.88;1.30;;;23.10;99.90;;;;;;5008335;28;20057;-48
2022/06/21 11:11:25;;;;;;;2.75;0.95;;;23.40;99.90;;;;;;4896655;29;20044;-48
2022/06/21 11:14:08;;;;;;;6.25;1.67;;;23.30;99.90;;;;;;4895778;29;20087;-49
2022/06/21 11:16:36;;;;;;;4.22;1.40;;;22.90;99.90;;;;;;4895739;29;20056;-46
2022/06/21 11:19:21;;;;;;;5.80;1.60;;;23.20;99.90;;;;;;4897501;29;20261;-49
2022/06/21 11:22:15;;;;;;;4.07;1.15;;;23.20;99.90;;;;;;4895422;29;20498;-47
2022/06/21 11:24:53;;;;;;;5.20;1.73;;;23.10;99.90;;;;;;4895734;29;20130;-45
2022/06/21 11:27:23;;;;;;;4.30;1.38;;;23.10;99.90;;;;;;4894854;29;20419;-46
2022/06/21 11:30:16;;;;;;;5.68;1.67;;;23.10;99.90;;;;;;4894593;29;20056;-48
2022/06/21 11:32:51;;;;;;;5.97;1.92;;;23.70;99.90;;;;;;4857538;29;20053;-48
2022/06/21 11:35:38;;;;;;;6.25;1.70;;;23.50;99.90;;;;;;4856893;29;20214;-47
2022/06/21 11:38:22;;;;;;;4.28;1.33;;;23.70;99.90;;;;;;4857951;29;20526;-51
2022/06/21 11:42:04;;;;;;;7.95;1.92;;;24.00;99.90;;;;;;4859229;29;20049;-48
2022/06/21 11:44:28;;;;;;;6.68;1.60;;;23.90;99.90;;;;;;4856809;29;20420;-50
2022/06/21 11:47:28;;;;;;;4.28;1.35;;;24.00;99.90;;;;;;4870308;28;20090;-48
2022/06/21 11:50:19;;;;;;;5.13;1.50;;;23.80;99.90;;;;;;4892206;29;20537;-51
2022/06/21 11:53:13;;;;;;;6.75;1.70;;;23.80;99.90;;;;;;4841400;29;20057;-48
2022/06/21 11:56:06;;;;;;;4.60;1.40;;;23.90;99.90;;;;;;4841250;29;20062;-49
2022/06/21 11:59:00;;;;;;;5.43;1.48;;;23.90;99.90;;;;;;4841467;29;20125;-50
2022/06/21 12:01:37;;;;;;;5.38;1.52;;;23.70;99.90;;;;;;4839776;29;20807;-50
2022/06/21 12:04:21;;;;;;;5.60;1.55;;;23.80;99.90;;;;;;4840165;29;20049;-51
2022/06/21 12:06:53;;;;;;;4.93;1.42;;;24.00;99.90;;;;;;4839145;29;20060;-51
2022/06/21 12:09:31;;;;;;;5.00;1.80;;;23.80;99.90;;;;;;4862561;29;20075;-46
2022/06/21 12:12:05;;;;;;;5.20;1.60;;;23.80;99.90;;;;;;4912772;29;21469;-50
2022/06/21 12:14:54;;;;;;;5.75;1.83;;;23.90;99.90;;;;;;4912438;29;20152;-49
2022/06/21 12:17:25;;;;;;;5.18;1.50;;;23.70;99.20;;;;;;4894879;29;20509;-50
2022/06/21 12:19:59;;;;;;;5.20;1.90;;;23.60;99.90;;;;;;4910936;29;20055;-50
2022/06/21 12:22:30;;;;;;;7.35;2.28;;;23.30;99.90;;;;;;4893844;29;20537;-50
2022/06/21 12:24:57;;;;;;;2.78;1.30;;;23.60;99.90;;;;;;4894055;29;20040;-47
2022/06/21 12:27:23;;;;;;;5.40;1.50;;;23.40;99.90;;;;;;4972242;28;20124;-48
2022/06/21 12:29:50;;;;;;;6.30;1.50;;;23.50;99.90;;;;;;5033311;28;20062;-51
2022/06/21 12:32:24;;;;;;;3.58;1.35;;;23.90;99.90;;;;;;5072983;28;20036;-47
2022/06/21 12:35:04;;;;;;;4.85;1.80;;;23.90;99.90;;;;;;5072342;28;20040;-52
2022/06/21 12:37:42;;;;;;;5.78;1.75;;;23.90;99.90;;;;;;5072178;28;20760;-48
2022/06/21 12:40:22;;;;;;;5.75;1.40;;;24.10;99.90;;;;;;5071026;28;20044;-49
2022/06/21 12:43:11;;;;;;;4.25;1.58;;;24.20;99.90;;;;;;5072186;28;20417;-49
2022/06/21 12:46:05;;;;;;;9.70;2.50;;;23.80;99.90;;;;;;5073346;28;20457;-48
2022/06/21 12:48:43;;;;;;;29.08;5.20;;;23.80;99.90;;;;;;5073344;28;20135;-51
2022/06/21 12:51:17;;;;;;;7.45;1.95;;;23.70;99.90;;;;;;5071630;28;20048;-50
2022/06/21 12:54:27;;;;;;;3.40;1.27;;;23.90;99.90;;;;;;5072237;28;20047;-52
2022/06/21 12:57:08;;;;;;;4.22;1.27;;;23.30;99.90;;;;;;4992248;28;20054;-52
2022/06/21 13:00:04;;;;;;;5.43;1.52;;;23.30;99.90;;;;;;4992187;28;21098;-49
2022/06/21 13:02:58;;;;;;;5.75;1.60;;;23.30;99.90;;;;;;4991822;28;20049;-48
2022/06/21 13:05:41;;;;;;;6.13;1.77;;;23.40;99.90;;;;;;4990849;28;20046;-48
2022/06/21 13:08:25;;;;;;;4.60;1.70;;;23.40;99.90;;;;;;4991114;28;20049;-47
2022/06/21 13:11:11;;;;;;;15.00;4.03;;;23.30;99.90;;;;;;4975128;28;20137;-51
2022/06/21 13:14:14;;;;;;;5.75;1.70;;;23.40;99.90;;;;;;4990764;28;20139;-47
2022/06/21 13:16:54;;;;;;;6.60;1.60;;;23.30;99.90;;;;;;4990623;28;20124;-50
2022/06/21 13:19:34;;;;;;;6.40;1.50;;;23.10;99.90;;;;;;4990800;28;20034;-50
2022/06/21 13:22:03;;;;;;;9.07;1.60;;;23.00;99.90;;;;;;4990336;28;20030;-47
2022/06/21 13:24:54;;;;;;;8.93;1.40;;;22.70;99.90;;;;;;4990703;28;20041;-50
2022/06/21 13:27:35;;;;;;;3.70;1.33;;;22.30;99.90;;;;;;4950414;28;20535;-47
2022/06/21 13:30:37;;;;;;;4.50;1.30;;;22.10;99.90;;;;;;4951414;28;20054;-48
2022/06/21 13:33:15;;;;;;;4.15;1.30;;;22.20;99.90;;;;;;4959436;28;20304;-50
2022/06/21 13:36:05;;;;;;;6.13;1.52;;;22.20;99.90;;;;;;4989421;28;20060;-48
2022/06/21 13:38:53;;;;;;;5.63;1.40;;;22.10;99.90;;;;;;4989478;28;20141;-49
2022/06/21 13:44:34;;;;;;;4.97;1.42;;;23.30;99.90;;;;;;4988514;28;20403;-47
2022/06/21 13:47:26;;;;;;;3.78;1.40;;;22.00;99.90;;;;;;4988894;28;20057;-46
2022/06/21 13:50:01;;;;;;;4.60;1.27;;;22.20;99.90;;;;;;4989373;28;20623;-49
2022/06/21 13:52:39;;;;;;;5.00;1.25;;;22.20;99.90;;;;;;4989271;28;20115;-50
2022/06/21 13:55:28;;;;;;;6.55;1.50;;;22.60;99.90;;;;;;4988974;28;20729;-47
2022/06/21 13:57:54;;;;;;;5.18;1.27;;;22.70;99.90;;;;;;4930189;29;20202;-51
2022/06/21 14:00:30;;;;;;;4.82;1.27;;;22.80;99.90;;;;;;4915176;29;20052;-51
2022/06/21 14:03:21;;;;;;;4.65;1.17;;;23.60;99.90;;;;;;4930216;29;20079;-49
2022/06/21 14:06:02;;;;;;;19.45;4.38;;;22.70;99.90;;;;;;4969513;28;20434;-50